sensor_id;sensor_type;location;lat;lon;timestamp;P1;durP1;ratioP1;P2;durP2;ratioP2
7669;SDS011;3877;42.562;27.636;2023-08-07T00:00:11;5.60;;;3.20;;
7669;SDS011;3877;42.562;27.636;2023-08-07T00:02:38;3.75;;;3.15;;
7669;SDS011;3877;42.562;27.636;2023-08-07T00:05:06;4.22;;;2.92;;
7669;SDS011;3877;42.562;27.636;2023-08-07T00:07:34;3.15;;;2.80;;
7669;SDS011;3877;42.562;27.636;2023-08-07T00:10:03;3.67;;;3.00;;
7669;SDS011;3877;42.562;27.636;2023-08-07T00:12:31;2.72;;;2.53;;
7669;SDS011;3877;42.562;27.636;2023-08-07T00:14:58;3.30;;;3.00;;
7669;SDS011;3877;42.562;27.636;2023-08-07T00:17:26;3.65;;;2.90;;
7669;SDS011;3877;42.562;27.636;2023-08-07T00:19:53;3.33;;;3.03;;
7669;SDS011;3877;42.562;27.636;2023-08-07T00:22:21;5.18;;;2.80;;
7669;SDS011;3877;42.562;27.636;2023-08-07T00:24:48;5.35;;;2.92;;
7669;SDS011;3877;42.562;27.636;2023-08-07T00:27:17;4.97;;;3.00;;
7669;SDS011;3877;42.562;27.636;2023-08-07T00:29:44;3.40;;;3.10;;
7669;SDS011;3877;42.562;27.636;2023-08-07T00:32:12;5.05;;;3.20;;
7669;SDS011;3877;42.562;27.636;2023-08-07T00:34:57;4.63;;;3.60;;
7669;SDS011;3877;42.562;27.636;2023-08-07T00:37:25;3.55;;;3.25;;
7669;SDS011;3877;42.562;27.636;2023-08-07T00:39:52;4.13;;;3.72;;
7669;SDS011;3877;42.562;27.636;2023-08-07T00:42:21;6.03;;;4.60;;
7669;SDS011;3877;42.562;27.636;2023-08-07T00:44:48;4.70;;;4.15;;
7669;SDS011;3877;42.562;27.636;2023-08-07T00:47:15;5.22;;;4.80;;
7669;SDS011;3877;42.562;27.636;2023-08-07T00:49:43;6.13;;;5.53;;
7669;SDS011;3877;42.562;27.636;2023-08-07T00:52:10;6.40;;;5.22;;
7669;SDS011;3877;42.562;27.636;2023-08-07T00:54:38;9.20;;;5.22;;
7669;SDS011;3877;42.562;27.636;2023-08-07T00:57:07;8.88;;;5.00;;
7669;SDS011;3877;42.562;27.636;2023-08-07T00:59:39;7.47;;;5.13;;
7669;SDS011;3877;42.562;27.636;2023-08-07T01:02:09;6.22;;;5.50;;
7669;SDS011;3877;42.562;27.636;2023-08-07T01:04:39;6.18;;;5.60;;
7669;SDS011;3877;42.562;27.636;2023-08-07T01:07:06;9.00;;;5.95;;
7669;SDS011;3877;42.562;27.636;2023-08-07T01:09:33;7.80;;;5.97;;
7669;SDS011;3877;42.562;27.636;2023-08-07T01:12:02;7.60;;;5.55;;
7669;SDS011;3877;42.562;27.636;2023-08-07T01:14:37;6.60;;;6.00;;
7669;SDS011;3877;42.562;27.636;2023-08-07T01:17:11;6.35;;;5.85;;
7669;SDS011;3877;42.562;27.636;2023-08-07T01:19:41;6.38;;;5.78;;
7669;SDS011;3877;42.562;27.636;2023-08-07T01:22:11;9.55;;;6.18;;
7669;SDS011;3877;42.562;27.636;2023-08-07T01:24:40;6.93;;;5.90;;
7669;SDS011;3877;42.562;27.636;2023-08-07T01:27:12;7.43;;;6.18;;
7669;SDS011;3877;42.562;27.636;2023-08-07T01:29:57;7.03;;;6.32;;
7669;SDS011;3877;42.562;27.636;2023-08-07T01:32:33;9.88;;;6.20;;
7669;SDS011;3877;42.562;27.636;2023-08-07T01:35:06;6.03;;;5.53;;
7669;SDS011;3877;42.562;27.636;2023-08-07T01:37:41;7.38;;;6.13;;
7669;SDS011;3877;42.562;27.636;2023-08-07T01:40:10;6.72;;;6.13;;
7669;SDS011;3877;42.562;27.636;2023-08-07T01:42:39;6.00;;;5.43;;
7669;SDS011;3877;42.562;27.636;2023-08-07T01:45:07;6.38;;;5.78;;
7669;SDS011;3877;42.562;27.636;2023-08-07T01:47:35;6.72;;;6.13;;
7669;SDS011;3877;42.562;27.636;2023-08-07T01:50:02;5.80;;;5.30;;
7669;SDS011;3877;42.562;27.636;2023-08-07T01:52:29;7.18;;;5.60;;
7669;SDS011;3877;42.562;27.636;2023-08-07T01:54:59;8.50;;;6.22;;
7669;SDS011;3877;42.562;27.636;2023-08-07T01:57:26;6.93;;;6.22;;
7669;SDS011;3877;42.562;27.636;2023-08-07T01:59:54;8.30;;;6.30;;
7669;SDS011;3877;42.562;27.636;2023-08-07T02:02:21;6.93;;;6.22;;
7669;SDS011;3877;42.562;27.636;2023-08-07T02:04:49;6.50;;;5.90;;
7669;SDS011;3877;42.562;27.636;2023-08-07T02:07:16;7.20;;;6.30;;
7669;SDS011;3877;42.562;27.636;2023-08-07T02:09:43;6.65;;;5.90;;
7669;SDS011;3877;42.562;27.636;2023-08-07T02:12:12;8.80;;;6.25;;
7669;SDS011;3877;42.562;27.636;2023-08-07T02:14:39;6.50;;;5.90;;
7669;SDS011;3877;42.562;27.636;2023-08-07T02:17:06;6.97;;;6.28;;
7669;SDS011;3877;42.562;27.636;2023-08-07T02:19:34;7.63;;;6.60;;
7669;SDS011;3877;42.562;27.636;2023-08-07T02:22:01;6.68;;;6.07;;
7669;SDS011;3877;42.562;27.636;2023-08-07T02:24:29;6.45;;;5.68;;
7669;SDS011;3877;42.562;27.636;2023-08-07T02:26:56;6.70;;;6.10;;
7669;SDS011;3877;42.562;27.636;2023-08-07T02:29:25;6.60;;;5.97;;
7669;SDS011;3877;42.562;27.636;2023-08-07T02:31:52;7.57;;;6.00;;
7669;SDS011;3877;42.562;27.636;2023-08-07T02:34:20;6.50;;;5.90;;
7669;SDS011;3877;42.562;27.636;2023-08-07T02:36:47;9.93;;;6.07;;
7669;SDS011;3877;42.562;27.636;2023-08-07T02:39:15;6.85;;;6.15;;
7669;SDS011;3877;42.562;27.636;2023-08-07T02:41:42;6.50;;;5.90;;
7669;SDS011;3877;42.562;27.636;2023-08-07T02:44:09;7.63;;;5.93;;
7669;SDS011;3877;42.562;27.636;2023-08-07T02:46:39;8.88;;;6.60;;
7669;SDS011;3877;42.562;27.636;2023-08-07T02:49:07;7.15;;;6.03;;
7669;SDS011;3877;42.562;27.636;2023-08-07T02:51:34;6.90;;;6.20;;
7669;SDS011;3877;42.562;27.636;2023-08-07T02:54:01;6.80;;;6.20;;
7669;SDS011;3877;42.562;27.636;2023-08-07T02:56:28;6.75;;;6.00;;
7669;SDS011;3877;42.562;27.636;2023-08-07T02:58:56;6.65;;;5.75;;
7669;SDS011;3877;42.562;27.636;2023-08-07T03:01:23;6.40;;;5.50;;
7669;SDS011;3877;42.562;27.636;2023-08-07T03:03:54;6.40;;;5.80;;
7669;SDS011;3877;42.562;27.636;2023-08-07T03:06:21;5.88;;;5.38;;
7669;SDS011;3877;42.562;27.636;2023-08-07T03:08:49;6.72;;;5.63;;
7669;SDS011;3877;42.562;27.636;2023-08-07T03:11:16;5.90;;;5.40;;
7669;SDS011;3877;42.562;27.636;2023-08-07T03:13:43;8.13;;;5.95;;
7669;SDS011;3877;42.562;27.636;2023-08-07T03:16:11;6.45;;;5.57;;
7669;SDS011;3877;42.562;27.636;2023-08-07T03:18:38;6.60;;;5.35;;
7669;SDS011;3877;42.562;27.636;2023-08-07T03:21:07;6.82;;;5.43;;
7669;SDS011;3877;42.562;27.636;2023-08-07T03:23:34;6.13;;;5.32;;
7669;SDS011;3877;42.562;27.636;2023-08-07T03:26:02;5.90;;;5.30;;
7669;SDS011;3877;42.562;27.636;2023-08-07T03:28:30;5.38;;;4.85;;
7669;SDS011;3877;42.562;27.636;2023-08-07T03:30:58;7.43;;;5.30;;
7669;SDS011;3877;42.562;27.636;2023-08-07T03:33:25;6.22;;;4.13;;
7669;SDS011;3877;42.562;27.636;2023-08-07T03:35:56;7.13;;;5.13;;
7669;SDS011;3877;42.562;27.636;2023-08-07T03:38:25;6.30;;;5.13;;
7669;SDS011;3877;42.562;27.636;2023-08-07T03:40:52;5.85;;;4.68;;
7669;SDS011;3877;42.562;27.636;2023-08-07T03:43:20;5.78;;;5.07;;
7669;SDS011;3877;42.562;27.636;2023-08-07T03:45:53;5.80;;;4.80;;
7669;SDS011;3877;42.562;27.636;2023-08-07T03:48:22;5.95;;;4.40;;
7669;SDS011;3877;42.562;27.636;2023-08-07T03:50:49;4.65;;;4.25;;
7669;SDS011;3877;42.562;27.636;2023-08-07T03:53:16;4.90;;;4.28;;
7669;SDS011;3877;42.562;27.636;2023-08-07T03:55:50;4.40;;;4.00;;
7669;SDS011;3877;42.562;27.636;2023-08-07T03:58:18;7.25;;;4.32;;
7669;SDS011;3877;42.562;27.636;2023-08-07T04:00:45;4.38;;;3.97;;
7669;SDS011;3877;42.562;27.636;2023-08-07T04:03:12;6.10;;;3.78;;
7669;SDS011;3877;42.562;27.636;2023-08-07T04:05:39;4.25;;;3.90;;
7669;SDS011;3877;42.562;27.636;2023-08-07T04:08:06;4.40;;;4.00;;
7669;SDS011;3877;42.562;27.636;2023-08-07T04:10:34;4.43;;;4.03;;
7669;SDS011;3877;42.562;27.636;2023-08-07T04:13:03;5.10;;;4.20;;
7669;SDS011;3877;42.562;27.636;2023-08-07T04:15:30;4.47;;;4.07;;
7669;SDS011;3877;42.562;27.636;2023-08-07T04:17:57;4.38;;;3.97;;
7669;SDS011;3877;42.562;27.636;2023-08-07T04:20:24;4.10;;;3.80;;
7669;SDS011;3877;42.562;27.636;2023-08-07T04:22:52;4.07;;;3.70;;
7669;SDS011;3877;42.562;27.636;2023-08-07T04:25:19;6.20;;;3.50;;
7669;SDS011;3877;42.562;27.636;2023-08-07T04:27:46;4.55;;;3.67;;
7669;SDS011;3877;42.562;27.636;2023-08-07T04:30:15;4.70;;;3.70;;
7669;SDS011;3877;42.562;27.636;2023-08-07T04:32:42;6.18;;;3.67;;
7669;SDS011;3877;42.562;27.636;2023-08-07T04:35:10;4.95;;;3.65;;
7669;SDS011;3877;42.562;27.636;2023-08-07T04:37:37;4.85;;;3.20;;
7669;SDS011;3877;42.562;27.636;2023-08-07T04:40:05;3.30;;;3.03;;
7669;SDS011;3877;42.562;27.636;2023-08-07T04:42:34;4.28;;;3.88;;
7669;SDS011;3877;42.562;27.636;2023-08-07T04:45:01;4.32;;;3.80;;
7669;SDS011;3877;42.562;27.636;2023-08-07T04:47:30;3.80;;;3.40;;
7669;SDS011;3877;42.562;27.636;2023-08-07T04:49:57;4.55;;;3.60;;
7669;SDS011;3877;42.562;27.636;2023-08-07T04:52:25;5.60;;;3.35;;
7669;SDS011;3877;42.562;27.636;2023-08-07T04:54:52;3.83;;;3.50;;
7669;SDS011;3877;42.562;27.636;2023-08-07T04:57:20;5.25;;;3.42;;
7669;SDS011;3877;42.562;27.636;2023-08-07T04:59:47;6.57;;;3.50;;
7669;SDS011;3877;42.562;27.636;2023-08-07T05:02:14;6.05;;;3.85;;
7669;SDS011;3877;42.562;27.636;2023-08-07T05:04:43;3.30;;;3.00;;
7669;SDS011;3877;42.562;27.636;2023-08-07T05:07:10;3.65;;;3.35;;
7669;SDS011;3877;42.562;27.636;2023-08-07T05:09:38;5.03;;;3.17;;
7669;SDS011;3877;42.562;27.636;2023-08-07T05:12:06;3.85;;;2.60;;
7669;SDS011;3877;42.562;27.636;2023-08-07T05:14:34;4.10;;;2.85;;
7669;SDS011;3877;42.562;27.636;2023-08-07T05:17:01;6.78;;;2.72;;
7669;SDS011;3877;42.562;27.636;2023-08-07T05:19:28;2.92;;;2.70;;
7669;SDS011;3877;42.562;27.636;2023-08-07T05:21:57;2.83;;;2.60;;
7669;SDS011;3877;42.562;27.636;2023-08-07T05:24:24;5.63;;;2.78;;
7669;SDS011;3877;42.562;27.636;2023-08-07T05:26:51;6.60;;;2.85;;
7669;SDS011;3877;42.562;27.636;2023-08-07T05:29:19;3.30;;;2.60;;
7669;SDS011;3877;42.562;27.636;2023-08-07T05:31:46;4.43;;;2.65;;
7669;SDS011;3877;42.562;27.636;2023-08-07T05:34:13;3.17;;;2.65;;
7669;SDS011;3877;42.562;27.636;2023-08-07T05:36:41;3.75;;;2.58;;
7669;SDS011;3877;42.562;27.636;2023-08-07T05:39:09;2.60;;;2.40;;
7669;SDS011;3877;42.562;27.636;2023-08-07T05:41:37;4.60;;;3.00;;
7669;SDS011;3877;42.562;27.636;2023-08-07T05:44:04;7.47;;;2.67;;
7669;SDS011;3877;42.562;27.636;2023-08-07T05:46:32;6.60;;;2.88;;
7669;SDS011;3877;42.562;27.636;2023-08-07T05:49:00;5.60;;;2.63;;
7669;SDS011;3877;42.562;27.636;2023-08-07T05:51:27;9.02;;;2.75;;
7669;SDS011;3877;42.562;27.636;2023-08-07T05:53:55;3.58;;;2.60;;
7669;SDS011;3877;42.562;27.636;2023-08-07T05:56:24;6.25;;;2.85;;
7669;SDS011;3877;42.562;27.636;2023-08-07T05:58:51;2.83;;;2.60;;
7669;SDS011;3877;42.562;27.636;2023-08-07T06:01:18;5.50;;;2.72;;
7669;SDS011;3877;42.562;27.636;2023-08-07T06:03:46;2.80;;;2.55;;
7669;SDS011;3877;42.562;27.636;2023-08-07T06:06:14;4.57;;;2.92;;
7669;SDS011;3877;42.562;27.636;2023-08-07T06:08:41;2.80;;;2.60;;
7669;SDS011;3877;42.562;27.636;2023-08-07T06:11:08;4.93;;;2.80;;
7669;SDS011;3877;42.562;27.636;2023-08-07T06:13:36;4.47;;;2.67;;
7669;SDS011;3877;42.562;27.636;2023-08-07T06:16:04;2.55;;;2.35;;
7669;SDS011;3877;42.562;27.636;2023-08-07T06:18:31;4.43;;;2.65;;
7669;SDS011;3877;42.562;27.636;2023-08-07T06:20:59;4.63;;;2.63;;
7669;SDS011;3877;42.562;27.636;2023-08-07T06:23:27;2.75;;;2.50;;
7669;SDS011;3877;42.562;27.636;2023-08-07T06:25:55;3.17;;;2.30;;
7669;SDS011;3877;42.562;27.636;2023-08-07T06:28:24;3.88;;;2.65;;
7669;SDS011;3877;42.562;27.636;2023-08-07T06:30:54;6.85;;;2.83;;
7669;SDS011;3877;42.562;27.636;2023-08-07T06:33:27;3.10;;;2.67;;
7669;SDS011;3877;42.562;27.636;2023-08-07T06:35:54;3.15;;;2.20;;
7669;SDS011;3877;42.562;27.636;2023-08-07T06:38:21;5.28;;;2.75;;
7669;SDS011;3877;42.562;27.636;2023-08-07T06:40:49;5.93;;;2.42;;
7669;SDS011;3877;42.562;27.636;2023-08-07T06:43:16;2.03;;;1.92;;
7669;SDS011;3877;42.562;27.636;2023-08-07T06:45:46;3.70;;;2.30;;
7669;SDS011;3877;42.562;27.636;2023-08-07T06:48:15;4.45;;;2.70;;
7669;SDS011;3877;42.562;27.636;2023-08-07T06:50:42;2.85;;;2.50;;
7669;SDS011;3877;42.562;27.636;2023-08-07T06:53:09;6.28;;;2.53;;
7669;SDS011;3877;42.562;27.636;2023-08-07T06:55:36;4.43;;;2.60;;
7669;SDS011;3877;42.562;27.636;2023-08-07T06:58:05;2.50;;;2.30;;
7669;SDS011;3877;42.562;27.636;2023-08-07T07:00:32;2.35;;;2.20;;
7669;SDS011;3877;42.562;27.636;2023-08-07T07:03:00;8.63;;;2.15;;
7669;SDS011;3877;42.562;27.636;2023-08-07T07:05:29;3.20;;;1.98;;
7669;SDS011;3877;42.562;27.636;2023-08-07T07:07:56;4.95;;;2.47;;
7669;SDS011;3877;42.562;27.636;2023-08-07T07:10:24;3.17;;;2.30;;
7669;SDS011;3877;42.562;27.636;2023-08-07T07:12:51;2.63;;;2.40;;
7669;SDS011;3877;42.562;27.636;2023-08-07T07:15:18;4.85;;;2.20;;
7669;SDS011;3877;42.562;27.636;2023-08-07T07:17:47;3.58;;;2.10;;
7669;SDS011;3877;42.562;27.636;2023-08-07T07:20:15;2.42;;;1.95;;
7669;SDS011;3877;42.562;27.636;2023-08-07T07:22:44;2.40;;;2.20;;
7669;SDS011;3877;42.562;27.636;2023-08-07T07:25:11;3.28;;;1.95;;
7669;SDS011;3877;42.562;27.636;2023-08-07T07:27:38;5.15;;;2.40;;
7669;SDS011;3877;42.562;27.636;2023-08-07T07:30:06;1.80;;;1.70;;
7669;SDS011;3877;42.562;27.636;2023-08-07T07:32:34;3.33;;;2.10;;
7669;SDS011;3877;42.562;27.636;2023-08-07T07:35:02;2.45;;;2.25;;
7669;SDS011;3877;42.562;27.636;2023-08-07T07:37:30;3.67;;;2.00;;
7669;SDS011;3877;42.562;27.636;2023-08-07T07:39:59;2.58;;;1.85;;
7669;SDS011;3877;42.562;27.636;2023-08-07T07:42:26;6.05;;;2.00;;
7669;SDS011;3877;42.562;27.636;2023-08-07T07:44:54;2.33;;;2.10;;
7669;SDS011;3877;42.562;27.636;2023-08-07T07:47:21;4.95;;;2.00;;
7669;SDS011;3877;42.562;27.636;2023-08-07T07:50:03;4.22;;;2.30;;
7669;SDS011;3877;42.562;27.636;2023-08-07T07:52:31;3.58;;;2.15;;
7669;SDS011;3877;42.562;27.636;2023-08-07T07:55:00;5.97;;;2.00;;
7669;SDS011;3877;42.562;27.636;2023-08-07T07:57:28;3.53;;;2.10;;
7669;SDS011;3877;42.562;27.636;2023-08-07T07:59:55;4.10;;;2.00;;
7669;SDS011;3877;42.562;27.636;2023-08-07T08:02:22;2.67;;;2.47;;
7669;SDS011;3877;42.562;27.636;2023-08-07T08:04:50;3.70;;;1.92;;
7669;SDS011;3877;42.562;27.636;2023-08-07T08:07:18;3.67;;;1.77;;
7669;SDS011;3877;42.562;27.636;2023-08-07T08:09:45;8.05;;;1.90;;
7669;SDS011;3877;42.562;27.636;2023-08-07T08:12:14;2.42;;;1.80;;
7669;SDS011;3877;42.562;27.636;2023-08-07T08:14:41;3.08;;;2.03;;
7669;SDS011;3877;42.562;27.636;2023-08-07T08:17:08;4.57;;;2.03;;
7669;SDS011;3877;42.562;27.636;2023-08-07T08:19:35;8.07;;;2.08;;
7669;SDS011;3877;42.562;27.636;2023-08-07T08:22:03;2.10;;;1.70;;
7669;SDS011;3877;42.562;27.636;2023-08-07T08:24:30;3.63;;;1.90;;
7669;SDS011;3877;42.562;27.636;2023-08-07T08:26:58;3.45;;;1.70;;
7669;SDS011;3877;42.562;27.636;2023-08-07T08:29:27;4.57;;;1.75;;
7669;SDS011;3877;42.562;27.636;2023-08-07T08:31:54;3.38;;;1.90;;
7669;SDS011;3877;42.562;27.636;2023-08-07T08:34:21;3.75;;;1.85;;
7669;SDS011;3877;42.562;27.636;2023-08-07T08:36:49;2.00;;;1.63;;
7669;SDS011;3877;42.562;27.636;2023-08-07T08:39:16;3.53;;;1.90;;
7669;SDS011;3877;42.562;27.636;2023-08-07T08:41:46;4.47;;;1.80;;
7669;SDS011;3877;42.562;27.636;2023-08-07T08:44:14;1.73;;;1.63;;
7669;SDS011;3877;42.562;27.636;2023-08-07T08:46:45;2.67;;;1.60;;
7669;SDS011;3877;42.562;27.636;2023-08-07T08:49:20;2.38;;;1.60;;
7669;SDS011;3877;42.562;27.636;2023-08-07T08:51:54;8.57;;;1.92;;
7669;SDS011;3877;42.562;27.636;2023-08-07T08:54:24;4.72;;;1.70;;
7669;SDS011;3877;42.562;27.636;2023-08-07T08:56:52;2.42;;;1.90;;
7669;SDS011;3877;42.562;27.636;2023-08-07T08:59:20;1.70;;;1.60;;
7669;SDS011;3877;42.562;27.636;2023-08-07T09:01:49;4.18;;;1.73;;
7669;SDS011;3877;42.562;27.636;2023-08-07T09:04:18;1.52;;;1.42;;
7669;SDS011;3877;42.562;27.636;2023-08-07T09:06:45;7.03;;;1.92;;
7669;SDS011;3877;42.562;27.636;2023-08-07T09:09:15;5.18;;;2.20;;
7669;SDS011;3877;42.562;27.636;2023-08-07T09:11:46;2.72;;;1.60;;
7669;SDS011;3877;42.562;27.636;2023-08-07T09:14:16;20.88;;;2.47;;
7669;SDS011;3877;42.562;27.636;2023-08-07T09:16:47;8.68;;;1.95;;
7669;SDS011;3877;42.562;27.636;2023-08-07T09:19:16;8.40;;;1.90;;
7669;SDS011;3877;42.562;27.636;2023-08-07T09:21:44;2.22;;;1.50;;
7669;SDS011;3877;42.562;27.636;2023-08-07T09:24:10;1.67;;;1.58;;
7669;SDS011;3877;42.562;27.636;2023-08-07T09:26:37;2.75;;;1.60;;
7669;SDS011;3877;42.562;27.636;2023-08-07T09:29:09;2.13;;;1.73;;
7669;SDS011;3877;42.562;27.636;2023-08-07T09:31:36;1.80;;;1.60;;
7669;SDS011;3877;42.562;27.636;2023-08-07T09:34:04;2.20;;;1.80;;
7669;SDS011;3877;42.562;27.636;2023-08-07T09:36:33;1.80;;;1.70;;
7669;SDS011;3877;42.562;27.636;2023-08-07T09:39:01;3.15;;;1.67;;
7669;SDS011;3877;42.562;27.636;2023-08-07T09:41:29;6.30;;;3.90;;
7669;SDS011;3877;42.562;27.636;2023-08-07T09:43:56;2.20;;;1.90;;
7669;SDS011;3877;42.562;27.636;2023-08-07T09:46:25;2.88;;;2.45;;
7669;SDS011;3877;42.562;27.636;2023-08-07T09:48:56;2.00;;;1.88;;
7669;SDS011;3877;42.562;27.636;2023-08-07T09:51:24;2.45;;;1.70;;
7669;SDS011;3877;42.562;27.636;2023-08-07T09:53:53;2.13;;;1.80;;
7669;SDS011;3877;42.562;27.636;2023-08-07T09:56:20;3.22;;;1.80;;
7669;SDS011;3877;42.562;27.636;2023-08-07T09:58:49;2.55;;;1.83;;
7669;SDS011;3877;42.562;27.636;2023-08-07T10:01:16;3.88;;;1.50;;
7669;SDS011;3877;42.562;27.636;2023-08-07T10:03:43;1.60;;;1.50;;
7669;SDS011;3877;42.562;27.636;2023-08-07T10:06:13;1.60;;;1.50;;
7669;SDS011;3877;42.562;27.636;2023-08-07T10:08:41;2.90;;;1.60;;
7669;SDS011;3877;42.562;27.636;2023-08-07T10:11:11;2.88;;;1.60;;
7669;SDS011;3877;42.562;27.636;2023-08-07T10:13:39;1.70;;;1.60;;
7669;SDS011;3877;42.562;27.636;2023-08-07T10:16:07;2.13;;;1.90;;
7669;SDS011;3877;42.562;27.636;2023-08-07T10:18:34;2.00;;;1.60;;
7669;SDS011;3877;42.562;27.636;2023-08-07T10:21:03;2.53;;;1.52;;
7669;SDS011;3877;42.562;27.636;2023-08-07T10:23:32;1.77;;;1.63;;
7669;SDS011;3877;42.562;27.636;2023-08-07T10:26:02;1.88;;;1.77;;
7669;SDS011;3877;42.562;27.636;2023-08-07T10:28:35;2.92;;;2.00;;
7669;SDS011;3877;42.562;27.636;2023-08-07T10:31:04;4.07;;;1.67;;
7669;SDS011;3877;42.562;27.636;2023-08-07T10:33:33;11.90;;;7.20;;
7669;SDS011;3877;42.562;27.636;2023-08-07T10:36:01;32.85;;;17.55;;
7669;SDS011;3877;42.562;27.636;2023-08-07T10:38:35;13.48;;;8.20;;
7669;SDS011;3877;42.562;27.636;2023-08-07T10:41:06;15.98;;;7.47;;
7669;SDS011;3877;42.562;27.636;2023-08-07T10:43:39;19.50;;;10.00;;
7669;SDS011;3877;42.562;27.636;2023-08-07T10:46:08;8.32;;;4.63;;
7669;SDS011;3877;42.562;27.636;2023-08-07T10:48:37;12.00;;;7.57;;
7669;SDS011;3877;42.562;27.636;2023-08-07T10:51:06;27.45;;;16.80;;
7669;SDS011;3877;42.562;27.636;2023-08-07T10:53:34;35.72;;;18.85;;
7669;SDS011;3877;42.562;27.636;2023-08-07T10:56:02;9.60;;;6.53;;
7669;SDS011;3877;42.562;27.636;2023-08-07T10:58:30;29.83;;;20.15;;
7669;SDS011;3877;42.562;27.636;2023-08-07T11:01:17;6.72;;;4.32;;
7669;SDS011;3877;42.562;27.636;2023-08-07T11:03:49;5.20;;;3.42;;
7669;SDS011;3877;42.562;27.636;2023-08-07T11:06:18;5.93;;;5.03;;
7669;SDS011;3877;42.562;27.636;2023-08-07T11:08:49;5.55;;;4.68;;
7669;SDS011;3877;42.562;27.636;2023-08-07T11:11:17;3.40;;;2.60;;
7669;SDS011;3877;42.562;27.636;2023-08-07T11:13:45;2.53;;;2.33;;
7669;SDS011;3877;42.562;27.636;2023-08-07T11:16:13;1.92;;;1.83;;
7669;SDS011;3877;42.562;27.636;2023-08-07T11:18:41;3.10;;;1.92;;
7669;SDS011;3877;42.562;27.636;2023-08-07T11:21:10;3.78;;;2.13;;
7669;SDS011;3877;42.562;27.636;2023-08-07T11:23:37;3.20;;;1.90;;
7669;SDS011;3877;42.562;27.636;2023-08-07T11:26:05;3.92;;;1.77;;
7669;SDS011;3877;42.562;27.636;2023-08-07T11:28:33;1.98;;;1.73;;
7669;SDS011;3877;42.562;27.636;2023-08-07T11:31:00;2.60;;;1.83;;
7669;SDS011;3877;42.562;27.636;2023-08-07T11:33:28;1.80;;;1.70;;
7669;SDS011;3877;42.562;27.636;2023-08-07T11:35:57;2.17;;;1.70;;
7669;SDS011;3877;42.562;27.636;2023-08-07T11:38:29;1.77;;;1.67;;
7669;SDS011;3877;42.562;27.636;2023-08-07T11:40:58;2.05;;;1.90;;
7669;SDS011;3877;42.562;27.636;2023-08-07T11:43:26;7.22;;;2.40;;
7669;SDS011;3877;42.562;27.636;2023-08-07T11:45:55;3.10;;;1.70;;
7669;SDS011;3877;42.562;27.636;2023-08-07T11:48:24;1.63;;;1.52;;
7669;SDS011;3877;42.562;27.636;2023-08-07T11:50:52;6.00;;;1.90;;
7669;SDS011;3877;42.562;27.636;2023-08-07T11:53:21;3.08;;;1.67;;
7669;SDS011;3877;42.562;27.636;2023-08-07T11:55:55;2.63;;;1.50;;
7669;SDS011;3877;42.562;27.636;2023-08-07T11:58:24;2.28;;;1.55;;
7669;SDS011;3877;42.562;27.636;2023-08-07T12:00:53;2.55;;;1.50;;
7669;SDS011;3877;42.562;27.636;2023-08-07T12:03:24;2.08;;;1.80;;
7669;SDS011;3877;42.562;27.636;2023-08-07T12:05:53;3.55;;;1.70;;
7669;SDS011;3877;42.562;27.636;2023-08-07T12:08:23;1.95;;;1.65;;
7669;SDS011;3877;42.562;27.636;2023-08-07T12:10:51;2.83;;;1.50;;
7669;SDS011;3877;42.562;27.636;2023-08-07T12:13:23;1.33;;;1.23;;
7669;SDS011;3877;42.562;27.636;2023-08-07T12:15:53;1.50;;;1.40;;
7669;SDS011;3877;42.562;27.636;2023-08-07T12:18:21;2.38;;;1.60;;
7669;SDS011;3877;42.562;27.636;2023-08-07T12:20:50;1.70;;;1.60;;
7669;SDS011;3877;42.562;27.636;2023-08-07T12:23:20;3.30;;;1.90;;
7669;SDS011;3877;42.562;27.636;2023-08-07T12:25:49;3.72;;;1.60;;
7669;SDS011;3877;42.562;27.636;2023-08-07T12:28:17;4.15;;;1.50;;
7669;SDS011;3877;42.562;27.636;2023-08-07T12:30:45;1.60;;;1.50;;
7669;SDS011;3877;42.562;27.636;2023-08-07T12:33:13;2.70;;;1.58;;
7669;SDS011;3877;42.562;27.636;2023-08-07T12:35:41;4.32;;;1.40;;
7669;SDS011;3877;42.562;27.636;2023-08-07T12:38:10;3.17;;;1.40;;
7669;SDS011;3877;42.562;27.636;2023-08-07T12:40:39;2.08;;;1.35;;
7669;SDS011;3877;42.562;27.636;2023-08-07T12:43:08;2.15;;;1.40;;
7669;SDS011;3877;42.562;27.636;2023-08-07T12:45:36;2.58;;;1.35;;
7669;SDS011;3877;42.562;27.636;2023-08-07T12:48:03;1.70;;;1.33;;
7669;SDS011;3877;42.562;27.636;2023-08-07T12:50:30;1.50;;;1.40;;
7669;SDS011;3877;42.562;27.636;2023-08-07T12:52:58;1.85;;;1.38;;
7669;SDS011;3877;42.562;27.636;2023-08-07T12:55:26;2.78;;;1.27;;
7669;SDS011;3877;42.562;27.636;2023-08-07T12:57:54;4.32;;;1.42;;
7669;SDS011;3877;42.562;27.636;2023-08-07T13:00:23;1.90;;;1.50;;
7669;SDS011;3877;42.562;27.636;2023-08-07T13:02:51;1.60;;;1.40;;
7669;SDS011;3877;42.562;27.636;2023-08-07T13:05:20;1.52;;;1.40;;
7669;SDS011;3877;42.562;27.636;2023-08-07T13:07:48;2.10;;;1.42;;
7669;SDS011;3877;42.562;27.636;2023-08-07T13:10:19;3.53;;;1.40;;
7669;SDS011;3877;42.562;27.636;2023-08-07T13:12:47;2.50;;;1.40;;
7669;SDS011;3877;42.562;27.636;2023-08-07T13:15:16;1.60;;;1.50;;
7669;SDS011;3877;42.562;27.636;2023-08-07T13:17:45;4.00;;;1.55;;
7669;SDS011;3877;42.562;27.636;2023-08-07T13:20:13;4.10;;;1.50;;
7669;SDS011;3877;42.562;27.636;2023-08-07T13:22:41;3.90;;;1.30;;
7669;SDS011;3877;42.562;27.636;2023-08-07T13:25:09;1.55;;;1.40;;
7669;SDS011;3877;42.562;27.636;2023-08-07T13:27:38;3.42;;;1.48;;
7669;SDS011;3877;42.562;27.636;2023-08-07T13:30:06;2.20;;;1.50;;
7669;SDS011;3877;42.562;27.636;2023-08-07T13:32:34;2.28;;;1.40;;
7669;SDS011;3877;42.562;27.636;2023-08-07T13:35:04;1.50;;;1.40;;
7669;SDS011;3877;42.562;27.636;2023-08-07T13:37:32;3.17;;;1.60;;
7669;SDS011;3877;42.562;27.636;2023-08-07T13:39:59;3.90;;;1.30;;
7669;SDS011;3877;42.562;27.636;2023-08-07T13:42:28;1.40;;;1.30;;
7669;SDS011;3877;42.562;27.636;2023-08-07T13:44:55;1.60;;;1.50;;
7669;SDS011;3877;42.562;27.636;2023-08-07T13:47:23;5.25;;;1.63;;
7669;SDS011;3877;42.562;27.636;2023-08-07T13:49:51;2.95;;;1.98;;
7669;SDS011;3877;42.562;27.636;2023-08-07T13:52:21;3.92;;;1.80;;
7669;SDS011;3877;42.562;27.636;2023-08-07T13:54:48;2.70;;;1.60;;
7669;SDS011;3877;42.562;27.636;2023-08-07T13:57:16;5.43;;;2.00;;
7669;SDS011;3877;42.562;27.636;2023-08-07T13:59:43;2.28;;;1.23;;
7669;SDS011;3877;42.562;27.636;2023-08-07T14:02:11;4.43;;;1.95;;
7669;SDS011;3877;42.562;27.636;2023-08-07T14:04:38;5.47;;;2.22;;
7669;SDS011;3877;42.562;27.636;2023-08-07T14:07:10;12.05;;;2.30;;
7669;SDS011;3877;42.562;27.636;2023-08-07T14:09:39;2.63;;;2.20;;
7669;SDS011;3877;42.562;27.636;2023-08-07T14:12:08;2.17;;;1.90;;
7669;SDS011;3877;42.562;27.636;2023-08-07T14:14:37;3.65;;;1.90;;
7669;SDS011;3877;42.562;27.636;2023-08-07T14:17:04;7.47;;;2.50;;
7669;SDS011;3877;42.562;27.636;2023-08-07T14:19:32;2.97;;;2.13;;
7669;SDS011;3877;42.562;27.636;2023-08-07T14:21:59;2.67;;;2.00;;
7669;SDS011;3877;42.562;27.636;2023-08-07T14:24:26;3.65;;;2.00;;
7669;SDS011;3877;42.562;27.636;2023-08-07T14:26:55;2.35;;;2.15;;
7669;SDS011;3877;42.562;27.636;2023-08-07T14:29:23;4.30;;;2.38;;
7669;SDS011;3877;42.562;27.636;2023-08-07T14:31:50;6.15;;;2.45;;
7669;SDS011;3877;42.562;27.636;2023-08-07T14:34:18;3.38;;;2.10;;
7669;SDS011;3877;42.562;27.636;2023-08-07T14:36:46;4.35;;;2.28;;
7669;SDS011;3877;42.562;27.636;2023-08-07T14:39:14;7.10;;;2.40;;
7669;SDS011;3877;42.562;27.636;2023-08-07T14:41:41;2.63;;;2.10;;
7669;SDS011;3877;42.562;27.636;2023-08-07T14:44:12;6.10;;;2.40;;
7669;SDS011;3877;42.562;27.636;2023-08-07T14:46:39;2.20;;;1.98;;
7669;SDS011;3877;42.562;27.636;2023-08-07T14:49:06;2.15;;;1.95;;
7669;SDS011;3877;42.562;27.636;2023-08-07T14:51:33;4.03;;;2.10;;
7669;SDS011;3877;42.562;27.636;2023-08-07T14:54:00;2.05;;;1.90;;
7669;SDS011;3877;42.562;27.636;2023-08-07T14:56:28;2.70;;;2.50;;
7669;SDS011;3877;42.562;27.636;2023-08-07T14:58:55;3.47;;;2.25;;
7669;SDS011;3877;42.562;27.636;2023-08-07T15:01:24;2.60;;;2.15;;
7669;SDS011;3877;42.562;27.636;2023-08-07T15:03:51;6.50;;;2.45;;
7669;SDS011;3877;42.562;27.636;2023-08-07T15:06:19;5.45;;;2.45;;